createdAt,value
2018-10-12T00:02:16.219Z,9.97
2018-10-12T00:04:46.187Z,8.30
2018-10-12T00:07:15.696Z,10.97
2018-10-12T00:09:45.218Z,8.63
2018-10-12T00:12:14.685Z,8.87
2018-10-12T00:14:44.180Z,9.17
2018-10-12T00:17:13.655Z,10.67
2018-10-12T00:19:43.157Z,8.43
2018-10-12T00:22:13.022Z,10.90
2018-10-12T00:24:42.526Z,11.23
2018-10-12T00:27:11.991Z,9.33
2018-10-12T00:29:42.198Z,11.17
2018-10-12T00:32:11.713Z,10.00
2018-10-12T00:34:41.187Z,11.63
2018-10-12T00:37:11.067Z,13.47
2018-10-12T00:39:40.609Z,11.00
2018-10-12T00:42:10.093Z,11.97
2018-10-12T00:44:39.619Z,13.70
2018-10-12T00:47:09.175Z,10.80
2018-10-12T00:49:38.690Z,9.23
2018-10-12T00:52:08.760Z,9.43
2018-10-12T00:54:38.260Z,10.53
2018-10-12T00:57:07.876Z,8.40
2018-10-12T00:59:37.418Z,6.97
2018-10-12T01:02:06.904Z,7.30
2018-10-12T01:04:36.733Z,8.33
2018-10-12T01:07:06.860Z,8.07
2018-10-12T01:09:36.328Z,8.20
2018-10-12T01:12:31.183Z,8.87
2018-10-12T01:15:01.571Z,8.43
2018-10-12T01:17:31.607Z,7.23
2018-10-12T01:20:01.717Z,9.10
2018-10-12T01:22:31.468Z,9.20
2018-10-12T01:25:02.560Z,6.83
2018-10-12T01:27:32.468Z,16.17
2018-10-12T01:30:02.473Z,10.23
2018-10-12T01:33:07.738Z,10.10
2018-10-12T01:35:37.722Z,7.77
2018-10-12T01:38:07.416Z,10.97
2018-10-12T01:40:36.909Z,7.07
2018-10-12T01:43:07.056Z,7.83
2018-10-12T01:45:37.247Z,7.73
2018-10-12T01:48:07.680Z,7.37
2018-10-12T01:50:37.239Z,7.70
2018-10-12T01:53:07.142Z,6.43
2018-10-12T01:55:37.036Z,7.30
2018-10-12T01:58:06.939Z,6.40
2018-10-12T02:00:36.437Z,9.33
2018-10-12T02:03:06.359Z,5.70
2018-10-12T02:05:35.856Z,9.13
2018-10-12T02:08:05.381Z,8.50
2018-10-12T02:10:35.513Z,6.70
2018-10-12T02:13:06.568Z,5.47
2018-10-12T02:15:36.005Z,7.13
2018-10-12T02:18:06.356Z,8.60
2018-10-12T02:20:36.171Z,5.97
2018-10-12T02:23:06.468Z,6.30
2018-10-12T02:25:35.968Z,5.07
2018-10-12T02:28:06.300Z,6.87
2018-10-12T02:30:35.726Z,7.10
2018-10-12T02:33:05.718Z,8.87
2018-10-12T02:35:35.225Z,7.17
2018-10-12T02:38:04.703Z,9.73
2018-10-12T02:40:34.442Z,10.30
2018-10-12T02:43:04.291Z,5.77
2018-10-12T02:45:33.768Z,6.23
2018-10-12T02:48:03.285Z,8.10
2018-10-12T02:50:32.761Z,6.63
2018-10-12T02:53:02.266Z,6.23
2018-10-12T02:55:32.074Z,5.57
2018-10-12T02:58:01.563Z,5.53
2018-10-12T03:00:31.321Z,6.30
2018-10-12T03:03:01.113Z,6.03
2018-10-12T03:05:30.790Z,6.07
2018-10-12T03:08:00.681Z,5.33
2018-10-12T03:10:30.521Z,6.33
2018-10-12T03:13:00.240Z,6.83
2018-10-12T03:15:29.755Z,5.70
2018-10-12T03:17:59.652Z,6.13
2018-10-12T03:20:29.153Z,8.03
2018-10-12T03:22:58.793Z,6.83
2018-10-12T03:25:28.365Z,7.67
2018-10-12T03:28:16.744Z,8.00
2018-10-12T03:30:46.200Z,7.53
2018-10-12T03:33:16.204Z,5.93
2018-10-12T03:35:46.258Z,6.90
2018-10-12T03:38:16.205Z,6.13
2018-10-12T03:40:46.100Z,5.53
2018-10-12T03:43:16.027Z,6.60
2018-10-12T03:45:45.560Z,4.53
2018-10-12T03:48:15.469Z,5.03
2018-10-12T03:50:45.730Z,7.40
2018-10-12T03:53:15.858Z,7.30
2018-10-12T03:55:45.745Z,6.00
2018-10-12T03:58:15.266Z,4.90
2018-10-12T04:00:44.721Z,5.03
2018-10-12T04:03:14.325Z,4.77
2018-10-12T04:05:44.160Z,5.67
2018-10-12T04:08:13.628Z,6.43
2018-10-12T04:10:43.086Z,5.07
2018-10-12T04:13:12.584Z,5.60
2018-10-12T04:15:42.076Z,5.10
2018-10-12T04:18:11.612Z,5.47
2018-10-12T04:20:41.089Z,5.40
2018-10-12T04:23:11.136Z,5.40
2018-10-12T04:25:40.620Z,7.43
2018-10-12T04:28:10.089Z,7.53
2018-10-12T04:30:39.552Z,5.33
2018-10-12T04:33:09.042Z,8.27
2018-10-12T04:35:38.497Z,5.17
2018-10-12T04:38:07.988Z,5.10
2018-10-12T04:41:11.364Z,6.27
2018-10-12T04:43:41.133Z,7.37
2018-10-12T04:46:13.566Z,4.50
2018-10-12T04:48:44.699Z,7.67
2018-10-12T04:51:22.379Z,4.53
2018-10-12T04:53:52.154Z,5.30
2018-10-12T04:56:22.236Z,4.77
2018-10-12T04:58:52.621Z,4.50
2018-10-12T05:01:22.249Z,6.17
2018-10-12T05:03:52.131Z,4.77
2018-10-12T05:06:22.128Z,6.63
2018-10-12T05:08:51.641Z,5.30
2018-10-12T05:11:21.458Z,6.90
2018-10-12T05:13:51.486Z,5.17
2018-10-12T05:16:20.941Z,6.80
2018-10-12T05:18:50.448Z,7.43
2018-10-12T05:21:19.916Z,7.57
2018-10-12T05:23:49.766Z,6.00
2018-10-12T05:26:19.559Z,6.80
2018-10-12T05:28:49.161Z,6.37
2018-10-12T05:31:18.933Z,5.43
2018-10-12T05:33:48.497Z,7.63
2018-10-12T05:36:18.985Z,5.93
2018-10-12T05:38:48.484Z,6.20
2018-10-12T05:41:18.440Z,5.63
2018-10-12T05:43:47.962Z,5.70
2018-10-12T05:46:17.614Z,8.77
2018-10-12T05:49:04.083Z,8.07
2018-10-12T05:51:33.822Z,9.87
2018-10-12T05:54:03.287Z,7.73
2018-10-12T05:56:33.856Z,6.80
2018-10-12T05:59:04.409Z,5.93
2018-10-12T06:01:33.876Z,7.27
2018-10-12T06:04:03.405Z,5.83
2018-10-12T06:06:33.118Z,7.73
2018-10-12T06:09:04.089Z,5.83
2018-10-12T06:11:33.589Z,7.47
2018-10-12T06:14:03.244Z,9.23
2018-10-12T06:16:32.736Z,10.87
2018-10-12T06:19:02.253Z,7.33
2018-10-12T06:21:31.924Z,5.70
2018-10-12T06:24:01.601Z,5.93
2018-10-12T06:26:31.168Z,9.47
2018-10-12T06:29:00.653Z,6.67
2018-10-12T06:31:30.423Z,7.70
2018-10-12T06:33:59.996Z,10.07
2018-10-12T06:36:29.784Z,7.03
2018-10-12T06:38:59.299Z,8.63
2018-10-12T06:41:29.203Z,5.43
2018-10-12T06:43:58.851Z,8.27
2018-10-12T06:46:28.773Z,6.87
2018-10-12T06:48:58.444Z,5.67
2018-10-12T06:51:27.923Z,9.10
2018-10-12T06:53:57.434Z,7.77
2018-10-12T06:56:27.154Z,5.60
2018-10-12T06:58:56.668Z,5.43
2018-10-12T07:01:26.154Z,6.10
2018-10-12T07:03:56.205Z,6.47
2018-10-12T07:06:25.693Z,8.37
2018-10-12T07:08:55.589Z,5.83
2018-10-12T07:11:25.088Z,7.93
2018-10-12T07:13:54.667Z,6.30
2018-10-12T07:16:24.652Z,6.33
2018-10-12T07:18:54.225Z,6.20
2018-10-12T07:21:23.712Z,6.50
2018-10-12T07:23:53.188Z,7.37
2018-10-12T07:26:22.749Z,6.50
2018-10-12T07:28:52.242Z,6.37
2018-10-12T07:31:21.836Z,4.90
2018-10-12T07:33:51.551Z,7.30
2018-10-12T07:36:21.013Z,7.03
2018-10-12T07:38:50.540Z,7.13
2018-10-12T07:41:20.043Z,6.40
2018-10-12T07:43:49.610Z,7.10
2018-10-12T07:46:19.168Z,8.83
2018-10-12T07:48:49.228Z,7.47
2018-10-12T07:51:18.751Z,4.77
2018-10-12T07:53:48.338Z,4.83
2018-10-12T07:56:17.837Z,9.00
2018-10-12T07:58:48.186Z,5.33
2018-10-12T08:01:17.682Z,3.97
2018-10-12T08:03:47.264Z,4.93
2018-10-12T08:06:16.820Z,6.30
2018-10-12T08:08:46.524Z,5.73
2018-10-12T08:11:16.019Z,4.97
2018-10-12T08:13:45.560Z,5.43
2018-10-12T08:16:15.590Z,5.33
2018-10-12T08:18:45.493Z,5.03
2018-10-12T08:21:15.391Z,3.43
2018-10-12T08:23:45.448Z,6.20
2018-10-12T08:26:14.947Z,5.10
2018-10-12T08:28:44.829Z,3.90
2018-10-12T08:31:14.329Z,4.17
2018-10-12T08:33:43.927Z,4.33
2018-10-12T08:36:13.589Z,3.90
2018-10-12T08:38:43.342Z,3.77
2018-10-12T08:41:13.162Z,4.57
2018-10-12T08:43:42.676Z,4.73
2018-10-12T08:46:12.210Z,3.97
2018-10-12T08:48:41.836Z,3.87
2018-10-12T08:51:11.420Z,4.87
2018-10-12T08:53:41.308Z,3.20
2018-10-12T08:56:10.885Z,4.10
2018-10-12T08:58:40.424Z,2.33
2018-10-12T09:01:09.926Z,4.73
2018-10-12T09:03:39.425Z,3.83
2018-10-12T09:06:08.908Z,4.73
2018-10-12T09:08:38.396Z,4.40
2018-10-12T09:11:08.317Z,3.73
2018-10-12T09:13:37.848Z,3.43
2018-10-12T09:16:08.314Z,3.83
2018-10-12T09:18:38.069Z,4.07
2018-10-12T09:21:07.956Z,5.80
2018-10-12T09:23:37.852Z,2.70
2018-10-12T09:26:07.645Z,5.17
2018-10-12T09:28:37.680Z,3.10
2018-10-12T09:31:07.893Z,4.90
2018-10-12T09:33:37.361Z,3.60
2018-10-12T09:36:07.084Z,4.23
2018-10-12T09:38:36.931Z,2.83
2018-10-12T09:41:06.661Z,3.20
2018-10-12T09:43:36.165Z,3.00
2018-10-12T09:46:05.740Z,3.87
2018-10-12T09:48:35.208Z,3.23
2018-10-12T09:51:04.763Z,5.57
2018-10-12T09:53:34.217Z,4.63
2018-10-12T09:56:03.966Z,2.50
2018-10-12T09:58:33.902Z,2.13
2018-10-12T10:01:08.808Z,2.87
2018-10-12T10:03:43.682Z,1.70
2018-10-12T10:06:13.284Z,1.73
2018-10-12T10:08:42.919Z,5.53
2018-10-12T10:11:12.499Z,2.73
2018-10-12T10:13:42.004Z,3.40
2018-10-12T10:16:11.689Z,4.33
2018-10-12T10:18:41.177Z,3.63
2018-10-12T10:21:10.636Z,3.30
2018-10-12T10:23:40.120Z,5.87
2018-10-12T10:26:09.652Z,3.17
2018-10-12T10:28:39.128Z,3.67
2018-10-12T10:31:08.958Z,8.77
2018-10-12T10:33:38.447Z,2.43
2018-10-12T10:36:07.956Z,1.50
2018-10-12T10:38:37.788Z,2.43
2018-10-12T10:41:08.049Z,1.83
2018-10-12T10:43:37.512Z,4.20
2018-10-12T10:46:07.819Z,3.97
2018-10-12T10:48:37.488Z,2.43
2018-10-12T10:51:08.178Z,1.87
2018-10-12T10:53:37.682Z,2.53
2018-10-12T10:56:07.887Z,2.97
2018-10-12T10:58:37.573Z,5.63
2018-10-12T11:01:08.058Z,2.33
2018-10-12T11:03:37.525Z,4.33
2018-10-12T11:06:07.424Z,4.47
2018-10-12T11:08:37.120Z,1.73
2018-10-12T11:11:07.108Z,3.00
2018-10-12T11:13:36.628Z,2.73
2018-10-12T11:16:06.415Z,2.80
2018-10-12T11:18:35.939Z,2.03
2018-10-12T11:21:05.710Z,4.53
2018-10-12T11:23:35.361Z,2.33
2018-10-12T11:26:05.244Z,2.50
2018-10-12T11:28:34.713Z,3.13
2018-10-12T11:31:04.173Z,4.50
2018-10-12T11:33:33.715Z,5.87
2018-10-12T11:36:03.165Z,2.40
2018-10-12T11:38:32.748Z,3.00
2018-10-12T11:41:02.312Z,3.23
2018-10-12T11:43:34.320Z,5.43
2018-10-12T11:46:04.516Z,3.50
2018-10-12T11:48:34.155Z,2.27
2018-10-12T11:51:03.633Z,1.90
2018-10-12T11:53:33.453Z,5.60
2018-10-12T11:56:03.384Z,2.30
2018-10-12T11:58:32.865Z,3.67
2018-10-12T12:01:02.706Z,2.63
2018-10-12T12:03:32.344Z,3.13
2018-10-12T12:06:01.888Z,2.83
2018-10-12T12:08:31.383Z,1.63
2018-10-12T12:11:00.870Z,4.13
2018-10-12T12:13:30.413Z,2.67
2018-10-12T12:16:00.070Z,2.10
2018-10-12T12:18:29.549Z,4.23
2018-10-12T12:20:59.081Z,3.50
2018-10-12T12:23:29.255Z,4.00
2018-10-12T12:25:58.776Z,2.03
2018-10-12T12:28:28.296Z,1.83
2018-10-12T12:30:57.804Z,3.10
2018-10-12T12:33:27.288Z,2.60
2018-10-12T12:35:57.186Z,2.20
2018-10-12T12:38:26.516Z,5.53
2018-10-12T12:40:55.993Z,3.67
2018-10-12T12:43:25.485Z,2.23
2018-10-12T12:45:54.928Z,2.93
2018-10-12T12:48:24.599Z,2.23
2018-10-12T12:50:54.225Z,2.07
2018-10-12T12:53:23.741Z,2.30
2018-10-12T12:55:53.209Z,2.93
2018-10-12T12:58:22.677Z,2.83
2018-10-12T13:00:52.669Z,1.70
2018-10-12T13:03:22.191Z,2.97
2018-10-12T13:05:51.706Z,2.73
2018-10-12T13:08:21.377Z,3.43
2018-10-12T13:10:50.865Z,3.90
2018-10-12T13:13:20.845Z,2.13
2018-10-12T13:15:50.360Z,3.10
2018-10-12T13:18:19.861Z,4.57
2018-10-12T13:20:49.290Z,4.83
2018-10-12T13:23:18.780Z,3.50
2018-10-12T13:25:48.376Z,1.53
2018-10-12T13:28:17.984Z,3.20
2018-10-12T13:30:47.768Z,3.90
2018-10-12T13:33:17.244Z,1.93
2018-10-12T13:35:46.753Z,2.27
2018-10-12T13:38:16.428Z,4.07
2018-10-12T13:40:45.904Z,3.27
2018-10-12T13:43:15.792Z,1.40
2018-10-12T13:45:45.353Z,4.20
2018-10-12T13:48:15.056Z,3.83
2018-10-12T13:50:44.592Z,2.73
2018-10-12T13:53:14.041Z,5.27
2018-10-12T13:55:43.521Z,1.97
2018-10-12T13:58:13.036Z,4.10
2018-10-12T14:00:42.572Z,3.70
2018-10-12T14:03:12.082Z,2.57
2018-10-12T14:05:41.607Z,2.73
2018-10-12T14:08:11.307Z,4.30
2018-10-12T14:10:40.748Z,2.70
2018-10-12T14:13:10.264Z,1.97
2018-10-12T14:15:39.781Z,2.43
2018-10-12T14:18:10.065Z,3.57
2018-10-12T14:20:39.986Z,9.33
2018-10-12T14:23:09.811Z,3.53
2018-10-12T14:25:39.285Z,5.77
2018-10-12T14:28:09.069Z,6.57
2018-10-12T14:30:38.719Z,1.93
2018-10-12T14:33:08.804Z,4.77
2018-10-12T14:35:38.346Z,1.50
2018-10-12T14:38:08.050Z,2.50
2018-10-12T14:40:37.574Z,3.37
2018-10-12T14:43:07.448Z,4.73
2018-10-12T14:45:36.904Z,1.87
2018-10-12T14:48:06.512Z,5.20
2018-10-12T14:50:36.363Z,5.40
2018-10-12T14:53:06.073Z,2.90
2018-10-12T14:55:36.037Z,3.13
2018-10-12T14:58:05.681Z,2.43
2018-10-12T15:00:35.517Z,1.90
2018-10-12T15:03:05.053Z,4.67
2018-10-12T15:05:34.578Z,5.37
2018-10-12T15:08:04.185Z,2.90
2018-10-12T15:10:33.980Z,5.33
2018-10-12T15:13:03.896Z,4.70
2018-10-12T15:15:33.381Z,3.43
2018-10-12T15:18:02.874Z,3.97
2018-10-12T15:20:32.711Z,4.63
2018-10-12T15:23:02.368Z,4.67
2018-10-12T15:25:31.987Z,5.73
2018-10-12T15:28:01.604Z,4.80
2018-10-12T15:30:31.158Z,6.57
2018-10-12T15:33:00.645Z,5.97
2018-10-12T15:35:30.080Z,6.23
2018-10-12T15:37:59.564Z,3.47
2018-10-12T15:40:29.357Z,7.43
2018-10-12T15:42:59.304Z,7.90
2018-10-12T15:45:28.901Z,4.37
2018-10-12T15:47:58.436Z,3.43
2018-10-12T15:50:27.932Z,6.63
2018-10-12T15:52:57.390Z,3.90
2018-10-12T15:55:26.861Z,3.37
2018-10-12T15:57:56.356Z,2.17
2018-10-12T16:00:25.898Z,2.70
2018-10-12T16:02:55.350Z,6.27
2018-10-12T16:05:25.208Z,3.60
2018-10-12T16:07:54.700Z,3.53
2018-10-12T16:10:24.293Z,6.67
2018-10-12T16:12:54.056Z,3.80
2018-10-12T16:15:23.774Z,5.53
2018-10-12T16:17:53.420Z,4.57
2018-10-12T16:20:22.893Z,7.20
2018-10-12T16:22:52.373Z,7.33
2018-10-12T16:26:06.399Z,4.43
2018-10-12T16:28:36.178Z,4.57
2018-10-12T16:31:05.780Z,4.07
2018-10-12T16:33:35.286Z,4.53
2018-10-12T16:36:05.744Z,7.70
2018-10-12T16:38:35.394Z,4.17
2018-10-12T16:41:05.280Z,3.70
2018-10-12T16:43:34.837Z,6.13
2018-10-12T16:46:04.994Z,4.37
2018-10-12T16:48:34.866Z,3.87
2018-10-12T16:51:04.881Z,2.70
2018-10-12T16:53:34.603Z,4.77
2018-10-12T16:56:04.059Z,4.43
2018-10-12T16:58:33.515Z,4.10
2018-10-12T17:01:03.015Z,5.60
2018-10-12T17:03:32.560Z,4.43
2018-10-12T17:06:02.044Z,2.30
2018-10-12T17:08:32.132Z,3.40
2018-10-12T17:11:01.948Z,3.47
2018-10-12T17:13:31.501Z,5.53
2018-10-12T17:16:00.950Z,7.10
2018-10-12T17:18:30.547Z,2.33
2018-10-12T17:21:00.233Z,5.00
2018-10-12T17:23:29.808Z,4.07
2018-10-12T17:25:59.404Z,3.20
2018-10-12T17:28:28.950Z,5.20
2018-10-12T17:30:58.469Z,3.73
2018-10-12T17:33:27.966Z,4.23
2018-10-12T17:35:57.460Z,4.13
2018-10-12T17:38:26.987Z,5.03
2018-10-12T17:40:56.468Z,6.93
2018-10-12T17:43:26.303Z,4.60
2018-10-12T17:45:55.745Z,4.20
2018-10-12T17:48:25.221Z,4.10
2018-10-12T17:50:54.681Z,4.07
2018-10-12T17:53:24.446Z,4.17
2018-10-12T17:55:53.993Z,7.43
2018-10-12T17:58:23.545Z,6.40
2018-10-12T18:00:53.232Z,2.50
2018-10-12T18:03:22.752Z,2.40
2018-10-12T18:05:52.600Z,6.67
2018-10-12T18:08:22.202Z,9.37
2018-10-12T18:10:51.717Z,3.23
2018-10-12T18:13:21.237Z,6.33
2018-10-12T18:15:50.866Z,6.83
2018-10-12T18:18:20.388Z,5.20
2018-10-12T18:20:50.002Z,4.43
2018-10-12T18:23:19.494Z,4.77
2018-10-12T18:25:49.052Z,4.00
2018-10-12T18:28:18.693Z,5.63
2018-10-12T18:30:48.237Z,5.63
2018-10-12T18:33:17.753Z,7.63
2018-10-12T18:35:47.290Z,6.73
2018-10-12T18:38:16.776Z,5.63
2018-10-12T18:40:46.260Z,4.67
2018-10-12T18:43:16.217Z,6.40
2018-10-12T18:45:45.914Z,3.27
2018-10-12T18:48:15.597Z,7.60
2018-10-12T18:50:45.101Z,5.70
2018-10-12T18:53:14.656Z,4.20
2018-10-12T18:55:44.112Z,5.67
2018-10-12T18:58:13.730Z,4.90
2018-10-12T19:00:43.334Z,3.00
2018-10-12T19:03:12.836Z,3.77
2018-10-12T19:05:42.497Z,3.57
2018-10-12T19:08:12.113Z,5.17
2018-10-12T19:10:41.628Z,4.63
2018-10-12T19:13:11.148Z,5.67
2018-10-12T19:15:40.760Z,4.93
2018-10-12T19:18:10.422Z,5.13
2018-10-12T19:20:39.970Z,7.23
2018-10-12T19:23:09.548Z,5.67
2018-10-12T19:25:39.078Z,7.73
2018-10-12T19:28:08.674Z,6.60
2018-10-12T19:30:38.549Z,7.43
2018-10-12T19:33:08.452Z,4.33
2018-10-12T19:35:39.847Z,8.30
2018-10-12T19:38:09.391Z,8.73
2018-10-12T19:40:39.085Z,5.87
2018-10-12T19:43:08.623Z,5.47
2018-10-12T19:45:38.143Z,6.53
2018-10-12T19:48:07.934Z,5.70
2018-10-12T19:50:37.420Z,7.37
2018-10-12T19:53:06.995Z,4.17
2018-10-12T19:55:36.684Z,5.37
2018-10-12T19:58:06.276Z,6.63
2018-10-12T20:00:35.806Z,6.50
2018-10-12T20:03:05.367Z,5.27
2018-10-12T20:05:35.549Z,6.80
2018-10-12T20:08:05.432Z,5.03
2018-10-12T20:10:35.134Z,7.43
2018-10-12T20:13:04.798Z,7.07
2018-10-12T20:15:34.360Z,7.23
2018-10-12T20:18:04.123Z,6.23
2018-10-12T20:20:33.732Z,6.13
2018-10-12T20:23:03.342Z,4.70
2018-10-12T20:25:33.131Z,4.47
2018-10-12T20:28:02.693Z,6.20
2018-10-12T20:30:32.299Z,7.50
2018-10-12T20:33:01.977Z,6.60
2018-10-12T20:36:02.885Z,5.00
2018-10-12T20:38:32.351Z,6.50
2018-10-12T20:41:01.912Z,8.17
2018-10-12T20:43:31.792Z,7.10
2018-10-12T20:46:01.353Z,7.17
2018-10-12T20:48:31.025Z,6.00
2018-10-12T20:51:00.536Z,6.00
2018-10-12T20:53:30.661Z,3.30
2018-10-12T20:56:00.327Z,11.57
2018-10-12T20:58:29.818Z,8.63
2018-10-12T21:00:59.462Z,7.23
2018-10-12T21:03:28.956Z,6.93
2018-10-12T21:05:58.930Z,5.13
2018-10-12T21:08:28.571Z,3.83
2018-10-12T21:10:58.254Z,7.17
2018-10-12T21:13:27.902Z,5.67
2018-10-12T21:15:57.353Z,5.33
2018-10-12T21:18:26.887Z,4.03
2018-10-12T21:20:56.439Z,5.07
2018-10-12T21:23:26.088Z,5.10
2018-10-12T21:25:55.685Z,4.70
2018-10-12T21:28:25.330Z,8.23
2018-10-12T21:30:54.904Z,7.57
2018-10-12T21:33:24.392Z,4.73
2018-10-12T21:35:53.949Z,7.67
2018-10-12T21:38:23.604Z,3.40
2018-10-12T21:40:53.176Z,4.17
2018-10-12T21:43:22.731Z,5.03
2018-10-12T21:45:52.276Z,4.30
2018-10-12T21:48:21.841Z,5.03
2018-10-12T21:50:51.355Z,4.40
2018-10-12T21:53:21.141Z,7.57
2018-10-12T21:55:50.654Z,9.57
2018-10-12T21:58:20.154Z,5.63
2018-10-12T22:00:54.980Z,5.87
2018-10-12T22:03:24.480Z,8.07
2018-10-12T22:05:54.013Z,3.60
2018-10-12T22:08:28.884Z,6.17
2018-10-12T22:10:58.395Z,6.43
2018-10-12T22:13:28.233Z,5.17
2018-10-12T22:15:57.787Z,9.80
2018-10-12T22:18:27.641Z,6.43
2018-10-12T22:20:57.338Z,6.53
2018-10-12T22:23:27.189Z,5.03
2018-10-12T22:25:56.757Z,4.40
2018-10-12T22:28:26.605Z,5.27
2018-10-12T22:30:56.139Z,4.27
2018-10-12T22:33:25.630Z,5.30
2018-10-12T22:35:55.497Z,4.17
2018-10-12T22:38:25.064Z,6.27
2018-10-12T22:40:54.532Z,2.77
2018-10-12T22:43:24.028Z,7.27
2018-10-12T22:45:53.689Z,4.40
2018-10-12T22:48:23.609Z,5.17
2018-10-12T22:50:53.072Z,4.73
2018-10-12T22:53:22.576Z,5.97
2018-10-12T22:55:52.064Z,8.47
2018-10-12T22:58:21.618Z,4.90
2018-10-12T23:00:51.775Z,4.50
2018-10-12T23:03:21.314Z,5.97
2018-10-12T23:05:50.932Z,4.50
2018-10-12T23:08:20.500Z,3.90
2018-10-12T23:10:50.490Z,5.70
2018-10-12T23:13:20.043Z,3.07
2018-10-12T23:15:49.578Z,9.00
2018-10-12T23:18:19.101Z,5.23
2018-10-12T23:20:48.577Z,4.77
2018-10-12T23:23:18.081Z,3.17
2018-10-12T23:25:47.606Z,5.27
2018-10-12T23:28:17.125Z,6.10
2018-10-12T23:30:46.637Z,4.70
2018-10-12T23:33:33.383Z,4.60
2018-10-12T23:36:03.248Z,8.87
2018-10-12T23:38:32.716Z,2.63
2018-10-12T23:41:02.220Z,3.77
2018-10-12T23:43:31.741Z,3.10
2018-10-12T23:46:01.252Z,4.47
2018-10-12T23:48:30.786Z,3.37
2018-10-12T23:51:00.633Z,4.77
2018-10-12T23:53:30.167Z,6.47
2018-10-12T23:55:59.741Z,4.83
2018-10-12T23:58:29.364Z,7.00
